createdAt,value
2023-01-02T00:01:52.558Z,8.19
2023-01-02T00:04:37.499Z,8.09
2023-01-02T00:07:22.593Z,8.17
2023-01-02T00:10:08.183Z,8.15
2023-01-02T00:12:53.496Z,8.13
2023-01-02T00:15:44.555Z,8.14
2023-01-02T00:18:29.700Z,8.11
2023-01-02T00:21:14.991Z,8.11
2023-01-02T00:24:00.404Z,8.06
2023-01-02T00:26:45.685Z,8.09
2023-01-02T00:29:31.140Z,8.00
2023-01-02T00:32:16.253Z,8.09
2023-01-02T00:35:01.509Z,7.96
2023-01-02T00:37:46.800Z,8.06
2023-01-02T00:40:32.235Z,8.04
2023-01-02T00:43:17.682Z,8.02
2023-01-02T00:46:07.644Z,8.02
2023-01-02T00:48:56.376Z,7.92
2023-01-02T00:51:41.672Z,7.85
2023-01-02T00:54:26.829Z,7.86
2023-01-02T00:57:12.135Z,7.93
2023-01-02T00:59:57.038Z,7.92
2023-01-02T01:02:42.382Z,7.80
2023-01-02T01:05:29.156Z,7.87
2023-01-02T01:08:14.403Z,7.79
2023-01-02T01:11:08.181Z,7.84
2023-01-02T01:13:53.214Z,7.80
2023-01-02T01:16:40.170Z,7.68
2023-01-02T01:19:29.571Z,7.76
2023-01-02T01:22:14.706Z,7.70
2023-01-02T01:25:00.076Z,7.69
2023-01-02T01:27:45.208Z,7.66
2023-01-02T01:30:30.225Z,7.65
2023-01-02T01:33:15.400Z,7.45
2023-01-02T01:36:02.927Z,7.43
2023-01-02T01:38:48.616Z,7.57
2023-01-02T01:41:33.600Z,7.47
2023-01-02T01:44:41.891Z,7.54
2023-01-02T01:47:40.639Z,7.43
2023-01-02T01:50:32.518Z,7.49
2023-01-02T01:53:21.909Z,7.31
2023-01-02T01:56:08.745Z,7.46
2023-01-02T01:58:53.965Z,7.44
2023-01-02T02:01:42.298Z,7.41
2023-01-02T02:04:28.038Z,7.38
2023-01-02T02:07:13.999Z,7.43
2023-01-02T02:10:10.655Z,7.37
2023-01-02T02:12:55.975Z,7.36
2023-01-02T02:15:44.250Z,7.25
2023-01-02T02:18:59.844Z,7.32
2023-01-02T02:22:09.788Z,7.31
2023-01-02T02:24:54.675Z,7.26
2023-01-02T02:27:55.175Z,7.25
2023-01-02T02:31:00.505Z,7.22
2023-01-02T02:34:37.034Z,7.15
2023-01-02T02:37:33.286Z,7.09
2023-01-02T02:40:39.044Z,7.08
2023-01-02T02:43:48.746Z,7.02
2023-01-02T02:46:36.768Z,6.99
2023-01-02T02:49:36.798Z,7.01
2023-01-02T02:52:24.879Z,6.90
2023-01-02T02:55:25.803Z,6.92
2023-01-02T02:58:13.418Z,6.96
2023-01-02T03:01:07.395Z,6.89
2023-01-02T03:03:52.669Z,6.94
2023-01-02T03:07:08.715Z,6.97
2023-01-02T03:10:16.438Z,6.96
2023-01-02T03:13:24.726Z,6.83
2023-01-02T03:16:16.023Z,6.93
2023-01-02T03:19:09.309Z,6.91
2023-01-02T03:22:02.711Z,6.92
2023-01-02T03:24:52.218Z,6.89
2023-01-02T03:27:42.218Z,6.78
2023-01-02T03:30:28.505Z,6.80
2023-01-02T03:33:17.680Z,6.83
2023-01-02T03:36:08.974Z,6.85
2023-01-02T03:39:05.911Z,6.85
2023-01-02T03:41:56.903Z,6.81
2023-01-02T03:44:46.296Z,6.93
2023-01-02T03:47:38.259Z,6.80
2023-01-02T03:50:47.558Z,6.96
2023-01-02T03:53:34.717Z,6.96
2023-01-02T03:56:34.811Z,6.98
2023-01-02T03:59:47.914Z,7.02
2023-01-02T04:02:46.452Z,6.94
2023-01-02T04:05:43.936Z,7.04
2023-01-02T04:08:34.453Z,6.97
2023-01-02T04:11:22.715Z,7.06
2023-01-02T04:14:18.794Z,7.07
2023-01-02T04:17:08.263Z,7.06
2023-01-02T04:19:58.984Z,7.08
2023-01-02T04:22:50.871Z,7.07
2023-01-02T04:25:55.360Z,6.96
2023-01-02T04:28:40.624Z,7.00
2023-01-02T04:31:36.288Z,7.02
2023-01-02T04:34:23.834Z,7.03
2023-01-02T04:37:08.872Z,7.04
2023-01-02T04:39:58.595Z,7.06
2023-01-02T04:42:43.748Z,7.03
2023-01-02T04:45:28.923Z,6.96
2023-01-02T04:48:14.028Z,6.94
2023-01-02T04:50:59.380Z,7.03
2023-01-02T04:53:47.932Z,7.06
2023-01-02T04:56:32.836Z,6.89
2023-01-02T04:59:17.821Z,7.10
2023-01-02T05:02:03.042Z,7.00
2023-01-02T05:04:48.068Z,7.04
2023-01-02T05:07:34.388Z,6.97
2023-01-02T05:10:19.206Z,6.93
2023-01-02T05:13:04.363Z,6.92
2023-01-02T05:15:56.704Z,6.85
2023-01-02T05:18:42.031Z,6.90
2023-01-02T05:21:45.560Z,6.90
2023-01-02T05:24:30.930Z,6.83
2023-01-02T05:27:15.891Z,6.82
2023-01-02T05:30:01.215Z,6.82
2023-01-02T05:32:46.507Z,6.97
2023-01-02T05:35:33.232Z,6.98
2023-01-02T05:38:27.694Z,6.93
2023-01-02T05:41:12.757Z,6.94
2023-01-02T05:43:57.879Z,6.85
2023-01-02T05:46:42.924Z,6.87
2023-01-02T05:49:28.520Z,6.96
2023-01-02T05:52:13.685Z,6.95
2023-01-02T05:54:59.019Z,6.86
2023-01-02T05:57:44.142Z,6.96
2023-01-02T06:00:29.066Z,6.91
2023-01-02T06:03:14.098Z,6.94
2023-01-02T06:06:03.838Z,6.94
2023-01-02T06:08:49.097Z,7.01
2023-01-02T06:11:35.155Z,7.01
2023-01-02T06:14:22.207Z,6.82
2023-01-02T06:17:07.435Z,6.95
2023-01-02T06:19:54.300Z,6.92
2023-01-02T06:22:39.646Z,6.90
2023-01-02T06:25:24.843Z,6.87
2023-01-02T06:28:09.783Z,6.81
2023-01-02T06:31:06.144Z,6.94
2023-01-02T06:33:59.036Z,6.83
2023-01-02T06:36:44.094Z,6.91
2023-01-02T06:39:29.440Z,6.87
2023-01-02T06:42:14.614Z,6.87
2023-01-02T06:44:59.737Z,6.83
2023-01-02T06:47:44.647Z,6.74
2023-01-02T06:50:34.927Z,6.72
2023-01-02T06:53:20.584Z,6.71
2023-01-02T06:56:07.105Z,6.58
2023-01-02T06:58:52.278Z,6.67
2023-01-02T07:01:37.763Z,6.67
2023-01-02T07:04:23.122Z,6.64
2023-01-02T07:07:08.809Z,6.64
2023-01-02T07:09:53.839Z,6.52
2023-01-02T07:12:39.131Z,6.62
2023-01-02T07:15:24.492Z,6.61
2023-01-02T07:18:09.611Z,6.62
2023-01-02T07:20:55.009Z,6.63
2023-01-02T07:23:41.234Z,6.62
2023-01-02T07:26:26.524Z,6.51
2023-01-02T07:29:11.837Z,6.58
2023-01-02T07:31:56.821Z,6.50
2023-01-02T07:34:42.386Z,6.62
2023-01-02T07:37:27.488Z,6.60
2023-01-02T07:40:12.697Z,6.58
2023-01-02T07:42:57.798Z,6.58
2023-01-02T07:45:49.500Z,6.54
2023-01-02T07:48:35.561Z,6.43
2023-01-02T07:51:26.614Z,6.41
2023-01-02T07:54:12.559Z,6.40
2023-01-02T07:56:57.735Z,6.38
2023-01-02T07:59:45.042Z,6.22
2023-01-02T08:02:30.057Z,6.23
2023-01-02T08:05:18.901Z,6.32
2023-01-02T08:08:04.230Z,6.34
2023-01-02T08:10:49.360Z,6.23
2023-01-02T08:13:35.418Z,6.34
2023-01-02T08:16:21.960Z,6.34
2023-01-02T08:19:07.426Z,6.30
2023-01-02T08:21:52.676Z,6.35
2023-01-02T08:24:38.718Z,6.34
2023-01-02T08:27:23.962Z,6.19
2023-01-02T08:30:09.184Z,6.28
2023-01-02T08:32:54.037Z,6.29
2023-01-02T08:35:39.342Z,6.26
2023-01-02T08:38:24.562Z,6.30
2023-01-02T08:41:10.001Z,6.26
2023-01-02T08:43:55.149Z,6.15
2023-01-02T08:46:43.623Z,6.12
2023-01-02T08:49:28.994Z,6.05
2023-01-02T08:52:14.595Z,5.92
2023-01-02T08:55:00.925Z,6.00
2023-01-02T08:57:46.272Z,5.96
2023-01-02T09:00:31.274Z,5.97
2023-01-02T09:03:16.483Z,6.00
2023-01-02T09:06:01.307Z,5.87
2023-01-02T09:08:46.646Z,5.93
2023-01-02T09:11:35.191Z,5.96
2023-01-02T09:14:22.001Z,5.93
2023-01-02T09:17:07.244Z,6.00
2023-01-02T09:19:52.628Z,6.01
2023-01-02T09:22:37.908Z,5.98
2023-01-02T09:25:24.630Z,6.02
2023-01-02T09:28:09.696Z,5.95
2023-01-02T09:30:55.399Z,6.01
2023-01-02T09:33:42.213Z,6.00
2023-01-02T09:36:27.319Z,6.02
2023-01-02T09:39:12.760Z,6.05
2023-01-02T09:42:00.396Z,6.08
2023-01-02T09:44:54.569Z,6.09
2023-01-02T09:47:42.207Z,5.89
2023-01-02T09:50:30.494Z,6.16
2023-01-02T09:53:16.117Z,6.42
2023-01-02T09:56:22.371Z,6.95
2023-01-02T09:59:13.469Z,6.85
2023-01-02T10:02:17.457Z,6.59
2023-01-02T10:05:14.660Z,6.73
2023-01-02T10:08:18.302Z,6.70
2023-01-02T10:11:18.510Z,6.66
2023-01-02T10:14:32.130Z,6.57
2023-01-02T10:17:22.257Z,6.56
2023-01-02T10:20:25.863Z,6.63
2023-01-02T10:23:16.153Z,6.65
2023-01-02T10:26:05.743Z,6.69
2023-01-02T10:29:03.571Z,6.66
2023-01-02T10:31:55.884Z,6.69
2023-01-02T10:35:07.802Z,6.81
2023-01-02T10:37:56.322Z,6.90
2023-01-02T10:40:45.429Z,7.01
2023-01-02T10:43:32.328Z,6.97
2023-01-02T10:46:17.581Z,7.01
2023-01-02T10:49:04.937Z,7.10
2023-01-02T10:51:56.927Z,7.17
2023-01-02T10:54:59.437Z,7.11
2023-01-02T10:57:51.724Z,7.27
2023-01-02T11:00:37.217Z,7.35
2023-01-02T11:03:25.366Z,7.38
2023-01-02T11:06:35.067Z,7.40
2023-01-02T11:09:28.229Z,7.37
2023-01-02T11:12:14.247Z,7.44
2023-01-02T11:15:13.239Z,7.54
2023-01-02T11:17:58.741Z,7.48
2023-01-02T11:20:50.547Z,7.57
2023-01-02T11:23:39.180Z,7.56
2023-01-02T11:26:25.866Z,7.51
2023-01-02T11:29:20.599Z,7.34
2023-01-02T11:32:05.584Z,7.63
2023-01-02T11:35:02.196Z,7.72
2023-01-02T11:37:53.635Z,7.67
2023-01-02T11:40:52.331Z,7.79
2023-01-02T11:43:49.739Z,7.93
2023-01-02T11:46:39.622Z,7.88
2023-01-02T11:49:28.121Z,7.95
2023-01-02T11:52:16.856Z,7.84
2023-01-02T11:55:13.516Z,7.90
2023-01-02T11:58:08.148Z,7.89
2023-01-02T12:01:00.003Z,7.87
2023-01-02T12:03:45.555Z,7.86
2023-01-02T12:06:39.673Z,7.82
2023-01-02T12:09:51.560Z,7.65
2023-01-02T12:12:55.450Z,7.61
2023-01-02T12:16:13.111Z,7.70
2023-01-02T12:19:21.761Z,7.91
2023-01-02T12:22:36.831Z,8.05
2023-01-02T12:25:40.278Z,8.14
2023-01-02T12:28:53.885Z,8.20
2023-01-02T12:31:49.472Z,8.07
2023-01-02T12:34:59.548Z,8.15
2023-01-02T12:37:44.456Z,8.34
2023-01-02T12:40:36.819Z,8.61
2023-01-02T12:44:00.619Z,8.76
2023-01-02T12:46:54.425Z,8.76
2023-01-02T12:50:18.442Z,8.70
2023-01-02T12:53:28.616Z,8.71
2023-01-02T12:56:17.866Z,8.69
2023-01-02T12:59:29.182Z,8.61
2023-01-02T13:02:25.544Z,8.71
2023-01-02T13:05:24.974Z,8.76
2023-01-02T13:08:26.284Z,8.63
2023-01-02T13:11:17.405Z,8.69
2023-01-02T13:14:04.910Z,8.74
2023-01-02T13:17:16.463Z,8.81
2023-01-02T13:20:01.652Z,8.87
2023-01-02T13:22:59.269Z,8.80
2023-01-02T13:25:51.725Z,8.87
2023-01-02T13:29:09.238Z,8.92
2023-01-02T13:31:56.085Z,8.97
2023-01-02T13:34:53.689Z,8.88
2023-01-02T13:37:42.983Z,8.68
2023-01-02T13:40:33.313Z,8.71
2023-01-02T13:43:25.857Z,8.66
2023-01-02T13:46:23.645Z,8.59
2023-01-02T13:49:20.602Z,8.56
2023-01-02T13:52:06.101Z,8.53
2023-01-02T13:55:21.099Z,8.55
2023-01-02T13:58:17.402Z,8.85
2023-01-02T14:01:22.544Z,8.90
2023-01-02T14:04:07.924Z,8.92
2023-01-02T14:06:54.247Z,8.84
2023-01-02T14:10:07.427Z,8.82
2023-01-02T14:12:59.582Z,8.72
2023-01-02T14:16:22.981Z,8.70
2023-01-02T14:19:14.626Z,8.82
2023-01-02T14:21:59.568Z,8.94
2023-01-02T14:24:52.925Z,8.80
2023-01-02T14:27:37.958Z,8.80
2023-01-02T14:30:36.762Z,8.94
2023-01-02T14:33:31.843Z,9.18
2023-01-02T14:36:20.344Z,9.13
2023-01-02T14:39:19.356Z,9.15
2023-01-02T14:42:37.739Z,9.18
2023-01-02T14:45:24.778Z,9.10
2023-01-02T14:48:15.804Z,8.98
2023-01-02T14:51:23.166Z,9.06
2023-01-02T14:54:26.175Z,9.02
2023-01-02T14:57:34.109Z,9.01
2023-01-02T15:00:25.772Z,9.01
2023-01-02T15:03:16.576Z,8.88
2023-01-02T15:06:13.707Z,8.86
2023-01-02T15:09:06.961Z,8.83
2023-01-02T15:12:15.927Z,8.76
2023-01-02T15:15:01.005Z,8.81
2023-01-02T15:17:48.051Z,8.84
2023-01-02T15:20:36.385Z,8.82
2023-01-02T15:23:26.695Z,8.69
2023-01-02T15:26:34.305Z,8.71
2023-01-02T15:29:28.212Z,8.64
2023-01-02T15:32:28.091Z,8.71
2023-01-02T15:35:25.144Z,8.55
2023-01-02T15:38:21.457Z,8.58
2023-01-02T15:41:06.759Z,8.27
2023-01-02T15:44:14.781Z,7.97
2023-01-02T15:47:00.714Z,7.63
2023-01-02T15:49:48.039Z,7.62
2023-01-02T15:52:33.648Z,7.50
2023-01-02T15:55:20.154Z,7.36
2023-01-02T15:58:17.441Z,7.35
2023-01-02T16:01:15.474Z,7.22
2023-01-02T16:04:07.280Z,7.25
2023-01-02T16:06:52.543Z,7.29
2023-01-02T16:09:38.801Z,7.10
2023-01-02T16:12:24.446Z,6.87
2023-01-02T16:15:09.850Z,6.84
2023-01-02T16:17:56.392Z,6.82
2023-01-02T16:20:41.779Z,6.73
2023-01-02T16:23:26.995Z,6.68
2023-01-02T16:26:14.096Z,6.54
2023-01-02T16:28:59.188Z,6.51
2023-01-02T16:32:01.494Z,6.53
2023-01-02T16:34:59.104Z,6.48
2023-01-02T16:37:59.548Z,6.49
2023-01-02T16:41:00.787Z,6.51
2023-01-02T16:43:47.413Z,6.49
2023-01-02T16:46:33.716Z,6.44
2023-01-02T16:49:21.405Z,6.45
2023-01-02T16:52:06.587Z,6.41
2023-01-02T16:54:54.281Z,6.54
2023-01-02T16:57:39.540Z,6.10
2023-01-02T17:00:24.617Z,5.98
2023-01-02T17:03:21.720Z,6.03
2023-01-02T17:06:12.363Z,5.94
2023-01-02T17:08:57.625Z,5.82
2023-01-02T17:12:01.317Z,6.03
2023-01-02T17:14:46.193Z,5.82
2023-01-02T17:17:31.038Z,5.76
2023-01-02T17:20:16.568Z,5.65
2023-01-02T17:23:01.608Z,5.56
2023-01-02T17:25:47.321Z,5.48
2023-01-02T17:28:32.336Z,5.43
2023-01-02T17:31:21.258Z,5.34
2023-01-02T17:34:10.824Z,5.27
2023-01-02T17:36:57.008Z,5.22
2023-01-02T17:39:43.143Z,5.06
2023-01-02T17:42:29.300Z,5.11
2023-01-02T17:45:14.352Z,5.06
2023-01-02T17:48:07.490Z,5.02
2023-01-02T17:50:55.365Z,4.87
2023-01-02T17:53:40.620Z,4.85
2023-01-02T17:56:25.666Z,4.81
2023-01-02T17:59:12.046Z,4.74
2023-01-02T18:02:00.482Z,4.65
2023-01-02T18:04:54.346Z,4.63
2023-01-02T18:07:39.739Z,4.62
2023-01-02T18:10:27.615Z,4.52
2023-01-02T18:13:18.007Z,4.41
2023-01-02T18:16:16.915Z,4.37
2023-01-02T18:19:01.967Z,4.32
2023-01-02T18:21:47.666Z,4.29
2023-01-02T18:24:32.748Z,4.06
2023-01-02T18:27:21.973Z,4.16
2023-01-02T18:30:19.036Z,4.10
2023-01-02T18:33:13.859Z,4.08
2023-01-02T18:36:02.492Z,4.05
2023-01-02T18:38:52.099Z,4.02
2023-01-02T18:41:37.224Z,3.90
2023-01-02T18:44:25.305Z,3.89
2023-01-02T18:47:32.821Z,3.82
2023-01-02T18:50:46.536Z,3.80
2023-01-02T18:53:39.134Z,3.68
2023-01-02T18:56:27.477Z,3.73
2023-01-02T18:59:15.595Z,3.73
2023-01-02T19:02:03.698Z,3.64
2023-01-02T19:04:48.854Z,3.65
2023-01-02T19:07:35.114Z,3.61
2023-01-02T19:10:34.519Z,3.54
2023-01-02T19:13:24.358Z,3.53
2023-01-02T19:16:18.922Z,3.50
2023-01-02T19:19:12.864Z,3.52
2023-01-02T19:21:59.614Z,3.58
2023-01-02T19:24:45.202Z,3.43
2023-01-02T19:27:36.948Z,3.34
2023-01-02T19:30:30.099Z,3.26
2023-01-02T19:33:43.588Z,3.01
2023-01-02T19:36:36.628Z,3.13
2023-01-02T19:39:34.305Z,3.02
2023-01-02T19:42:20.738Z,3.03
2023-01-02T19:45:08.256Z,3.00
2023-01-02T19:47:54.158Z,2.96
2023-01-02T19:50:39.023Z,2.92
2023-01-02T19:53:24.282Z,2.68
2023-01-02T19:56:09.399Z,2.86
2023-01-02T19:58:54.315Z,2.76
2023-01-02T20:01:39.503Z,2.84
2023-01-02T20:04:24.738Z,2.74
2023-01-02T20:07:10.801Z,2.81
2023-01-02T20:09:55.844Z,2.81
2023-01-02T20:12:41.388Z,2.73
2023-01-02T20:15:27.412Z,2.62
2023-01-02T20:18:12.501Z,2.63
2023-01-02T20:20:57.607Z,2.65
2023-01-02T20:23:42.674Z,2.59
2023-01-02T20:26:28.727Z,2.50
2023-01-02T20:29:13.747Z,2.31
2023-01-02T20:31:59.780Z,2.37
2023-01-02T20:34:44.850Z,2.28
2023-01-02T20:37:31.060Z,2.30
2023-01-02T20:40:16.295Z,2.26
2023-01-02T20:43:01.680Z,2.11
2023-01-02T20:45:46.947Z,2.23
2023-01-02T20:48:32.581Z,2.23
2023-01-02T20:51:17.569Z,2.22
2023-01-02T20:54:03.991Z,2.20
2023-01-02T20:56:49.211Z,2.19
2023-01-02T20:59:34.682Z,2.07
2023-01-02T21:02:20.120Z,2.09
2023-01-02T21:05:05.639Z,2.08
2023-01-02T21:07:50.898Z,2.03
2023-01-02T21:10:36.774Z,1.96
2023-01-02T21:13:22.036Z,1.86
2023-01-02T21:16:07.309Z,1.88
2023-01-02T21:18:52.678Z,1.83
2023-01-02T21:21:37.674Z,1.82
2023-01-02T21:24:23.027Z,1.75
2023-01-02T21:27:12.948Z,1.69
2023-01-02T21:29:58.714Z,1.60
2023-01-02T21:32:44.360Z,1.69
2023-01-02T21:35:29.536Z,1.63
2023-01-02T21:38:15.329Z,1.53
2023-01-02T21:41:20.495Z,1.62
2023-01-02T21:44:05.403Z,1.67
2023-01-02T21:46:50.569Z,1.69
2023-01-02T21:49:36.041Z,1.71
2023-01-02T21:52:20.920Z,1.72
2023-01-02T21:55:07.666Z,1.73
2023-01-02T21:58:13.729Z,1.67
2023-01-02T22:00:59.301Z,1.73
2023-01-02T22:03:44.261Z,1.84
2023-01-02T22:06:33.957Z,1.81
2023-01-02T22:09:19.468Z,1.70
2023-01-02T22:12:06.997Z,1.64
2023-01-02T22:14:52.851Z,1.69
2023-01-02T22:17:37.898Z,1.69
2023-01-02T22:20:23.231Z,1.68
2023-01-02T22:23:08.512Z,1.88
2023-01-02T22:25:53.794Z,1.78
2023-01-02T22:28:42.764Z,1.89
2023-01-02T22:31:28.895Z,1.99
2023-01-02T22:34:13.985Z,2.07
2023-01-02T22:37:00.352Z,2.09
2023-01-02T22:39:45.545Z,2.04
2023-01-02T22:43:08.231Z,2.06
2023-01-02T22:45:54.001Z,2.02
2023-01-02T22:48:42.268Z,2.07
2023-01-02T22:51:57.759Z,2.08
2023-01-02T22:54:32.929Z,2.06
2023-01-02T22:57:18.614Z,2.05
2023-01-02T23:00:04.384Z,2.06
2023-01-02T23:02:50.814Z,2.04
2023-01-02T23:05:36.069Z,2.06
2023-01-02T23:08:21.176Z,2.04
2023-01-02T23:11:08.018Z,2.07
2023-01-02T23:13:56.591Z,2.02
2023-01-02T23:17:00.487Z,1.96
2023-01-02T23:19:45.853Z,2.03
2023-01-02T23:22:31.842Z,2.07
2023-01-02T23:25:17.067Z,2.01
2023-01-02T23:28:03.017Z,2.06
2023-01-02T23:30:48.024Z,2.12
2023-01-02T23:33:32.903Z,2.14
2023-01-02T23:36:17.923Z,2.18
2023-01-02T23:39:05.476Z,2.20
2023-01-02T23:41:51.395Z,2.19
2023-01-02T23:44:38.293Z,2.16
2023-01-02T23:47:23.657Z,2.23
2023-01-02T23:50:09.003Z,2.23
2023-01-02T23:52:53.921Z,2.22
2023-01-02T23:55:45.009Z,2.25
2023-01-02T23:58:30.053Z,2.30
